createdAt,value
2023-01-23T00:00:13.355Z,96158.00
2023-01-23T00:02:39.798Z,96159.03
2023-01-23T00:05:07.234Z,96161.88
2023-01-23T00:07:33.672Z,96160.63
2023-01-23T00:10:00.206Z,96166.53
2023-01-23T00:12:26.697Z,96174.22
2023-01-23T00:14:53.768Z,96178.16
2023-01-23T00:17:20.218Z,96172.75
2023-01-23T00:19:46.698Z,96180.09
2023-01-23T00:22:14.555Z,96177.59
2023-01-23T00:24:41.146Z,96178.75
2023-01-23T00:27:07.638Z,96167.00
2023-01-23T00:29:34.209Z,96189.50
2023-01-23T00:32:01.245Z,96185.72
2023-01-23T00:34:27.866Z,96187.06
2023-01-23T00:36:54.241Z,96182.28
2023-01-23T00:39:23.635Z,96187.91
2023-01-23T00:41:50.245Z,96186.41
2023-01-23T00:44:17.604Z,96171.66
2023-01-23T00:46:44.264Z,96172.69
2023-01-23T00:49:11.353Z,96186.44
2023-01-23T00:51:37.845Z,96186.81
2023-01-23T00:54:04.440Z,96181.91
2023-01-23T00:56:30.939Z,96196.22
2023-01-23T00:58:57.411Z,96191.44
2023-01-23T01:01:23.921Z,96194.59
2023-01-23T01:03:50.419Z,96203.63
2023-01-23T01:06:17.587Z,96206.22
2023-01-23T01:08:44.053Z,96214.19
2023-01-23T01:11:10.463Z,96208.78
2023-01-23T01:13:37.004Z,96214.69
2023-01-23T01:16:04.170Z,96215.09
2023-01-23T01:18:30.786Z,96221.25
2023-01-23T01:20:57.732Z,96217.50
2023-01-23T01:23:25.189Z,96219.31
2023-01-23T01:25:51.679Z,96208.66
2023-01-23T01:28:18.302Z,96213.06
2023-01-23T01:30:44.779Z,96204.66
2023-01-23T01:33:11.225Z,96215.78
2023-01-23T01:35:39.288Z,96216.00
2023-01-23T01:38:05.720Z,96211.88
2023-01-23T01:40:34.823Z,96205.25
2023-01-23T01:43:05.150Z,96207.38
2023-01-23T01:46:09.240Z,96191.19
2023-01-23T01:48:40.162Z,96197.84
2023-01-23T01:51:15.169Z,96175.25
2023-01-23T01:53:42.689Z,96176.97
2023-01-23T01:56:12.549Z,96194.00
2023-01-23T01:58:40.977Z,96191.91
2023-01-23T02:01:08.435Z,96175.09
2023-01-23T02:03:37.622Z,96184.84
2023-01-23T02:06:05.926Z,96183.31
2023-01-23T02:08:39.295Z,96179.34
2023-01-23T02:11:06.740Z,96173.44
2023-01-23T02:13:36.384Z,96180.81
2023-01-23T02:16:05.856Z,96183.47
2023-01-23T02:18:34.453Z,96177.16
2023-01-23T02:21:05.655Z,96172.50
2023-01-23T02:23:42.571Z,96158.69
2023-01-23T02:26:15.977Z,96164.72
2023-01-23T02:28:46.525Z,96175.91
2023-01-23T02:31:18.206Z,96173.22
2023-01-23T02:33:50.317Z,96171.25
2023-01-23T02:36:19.930Z,96170.53
2023-01-23T02:38:55.095Z,96150.63
2023-01-23T02:41:28.329Z,96151.34
2023-01-23T02:43:56.689Z,96145.31
2023-01-23T02:46:24.510Z,96151.88
2023-01-23T02:48:51.237Z,96155.09
2023-01-23T02:51:20.184Z,96143.09
2023-01-23T02:53:47.877Z,96149.84
2023-01-23T02:56:15.343Z,96157.53
2023-01-23T02:59:02.165Z,96162.03
2023-01-23T03:01:29.209Z,96182.50
2023-01-23T03:03:56.263Z,96173.22
2023-01-23T03:06:23.736Z,96164.41
2023-01-23T03:08:50.673Z,96183.00
2023-01-23T03:11:18.773Z,96185.78
2023-01-23T03:13:46.902Z,96192.16
2023-01-23T03:16:13.863Z,96183.03
2023-01-23T03:18:53.529Z,96186.19
2023-01-23T03:21:21.246Z,96183.94
2023-01-23T03:23:47.747Z,96189.41
2023-01-23T03:26:14.649Z,96185.91
2023-01-23T03:28:59.103Z,96186.53
2023-01-23T03:31:26.295Z,96174.53
2023-01-23T03:33:53.167Z,96183.38
2023-01-23T03:36:20.375Z,96180.97
2023-01-23T03:39:11.073Z,96168.88
2023-01-23T03:41:41.163Z,96170.41
2023-01-23T03:44:08.387Z,96176.69
2023-01-23T03:46:35.962Z,96171.19
2023-01-23T03:49:02.915Z,96178.13
2023-01-23T03:51:29.451Z,96176.75
2023-01-23T03:53:56.029Z,96180.50
2023-01-23T03:56:22.589Z,96179.00
2023-01-23T03:58:49.798Z,96186.00
2023-01-23T04:01:19.117Z,96176.41
2023-01-23T04:03:46.323Z,96181.22
2023-01-23T04:06:12.802Z,96185.53
2023-01-23T04:08:39.447Z,96187.16
2023-01-23T04:11:09.929Z,96187.50
2023-01-23T04:13:36.872Z,96189.09
2023-01-23T04:16:04.954Z,96188.75
2023-01-23T04:18:32.607Z,96196.09
2023-01-23T04:21:00.096Z,96193.41
2023-01-23T04:23:26.601Z,96202.03
2023-01-23T04:25:53.482Z,96205.06
2023-01-23T04:28:21.304Z,96198.34
2023-01-23T04:30:49.984Z,96201.41
2023-01-23T04:33:23.154Z,96201.50
2023-01-23T04:35:51.101Z,96203.28
2023-01-23T04:38:18.373Z,96201.34
2023-01-23T04:40:46.607Z,96198.84
2023-01-23T04:43:13.147Z,96193.69
2023-01-23T04:45:47.567Z,96202.25
2023-01-23T04:48:26.055Z,96190.44
2023-01-23T04:50:53.350Z,96194.25
2023-01-23T04:53:20.461Z,96195.00
2023-01-23T04:55:52.876Z,96195.44
2023-01-23T04:58:19.885Z,96197.75
2023-01-23T05:00:46.610Z,96202.06
2023-01-23T05:03:13.589Z,96194.38
2023-01-23T05:05:44.256Z,96202.34
2023-01-23T05:08:11.232Z,96202.88
2023-01-23T05:10:39.106Z,96197.91
2023-01-23T05:13:09.581Z,96199.97
2023-01-23T05:15:36.224Z,96191.53
2023-01-23T05:18:02.837Z,96196.34
2023-01-23T05:20:29.416Z,96203.28
2023-01-23T05:23:00.327Z,96205.78
2023-01-23T05:25:34.776Z,96213.25
2023-01-23T05:28:01.957Z,96215.19
2023-01-23T05:30:30.439Z,96216.78
2023-01-23T05:33:12.438Z,96226.16
2023-01-23T05:35:39.693Z,96231.78
2023-01-23T05:38:06.712Z,96235.13
2023-01-23T05:40:33.466Z,96238.63
2023-01-23T05:43:26.764Z,96234.56
2023-01-23T05:46:16.698Z,96238.28
2023-01-23T05:48:49.271Z,96232.69
2023-01-23T05:51:16.442Z,96219.25
2023-01-23T05:53:44.015Z,96215.66
2023-01-23T05:56:11.172Z,96226.97
2023-01-23T05:58:49.524Z,96224.81
2023-01-23T06:01:26.797Z,96220.53
2023-01-23T06:04:28.512Z,96214.88
2023-01-23T06:07:27.481Z,96213.97
2023-01-23T06:09:56.956Z,96218.31
2023-01-23T06:12:23.597Z,96222.31
2023-01-23T06:14:50.915Z,96236.84
2023-01-23T06:17:17.543Z,96237.75
2023-01-23T06:19:44.265Z,96240.53
2023-01-23T06:22:11.217Z,96249.16
2023-01-23T06:24:55.915Z,96246.63
2023-01-23T06:27:22.709Z,96243.38
2023-01-23T06:29:50.842Z,96250.94
2023-01-23T06:32:17.576Z,96249.97
2023-01-23T06:34:46.305Z,96245.47
2023-01-23T06:37:12.918Z,96241.97
2023-01-23T06:39:42.660Z,96233.38
2023-01-23T06:42:24.720Z,96206.63
2023-01-23T06:44:52.955Z,96223.84
2023-01-23T06:47:22.477Z,96233.44
2023-01-23T06:49:55.147Z,96218.28
2023-01-23T06:52:23.147Z,96224.81
2023-01-23T06:54:50.125Z,96224.25
2023-01-23T06:57:16.872Z,96229.91
2023-01-23T06:59:45.494Z,96227.66
2023-01-23T07:02:14.807Z,96233.44
2023-01-23T07:04:51.345Z,96236.56
2023-01-23T07:07:18.308Z,96229.28
2023-01-23T07:09:47.573Z,96229.19
2023-01-23T07:12:18.611Z,96243.00
2023-01-23T07:14:45.608Z,96251.50
2023-01-23T07:17:16.790Z,96253.69
2023-01-23T07:19:43.284Z,96229.84
2023-01-23T07:22:16.332Z,96252.34
2023-01-23T07:24:42.776Z,96248.88
2023-01-23T07:27:09.190Z,96260.88
2023-01-23T07:29:35.721Z,96266.22
2023-01-23T07:32:02.290Z,96264.63
2023-01-23T07:34:29.358Z,96270.72
2023-01-23T07:36:55.767Z,96278.66
2023-01-23T07:39:22.333Z,96271.00
2023-01-23T07:41:48.759Z,96269.59
2023-01-23T07:44:17.861Z,96278.44
2023-01-23T07:46:44.343Z,96258.66
2023-01-23T07:49:11.001Z,96247.81
2023-01-23T07:51:38.296Z,96259.09
2023-01-23T07:54:05.360Z,96280.78
2023-01-23T07:56:32.277Z,96280.78
2023-01-23T07:58:58.748Z,96270.78
2023-01-23T08:01:25.313Z,96279.88
2023-01-23T08:03:52.500Z,96283.78
2023-01-23T08:06:19.174Z,96287.19
2023-01-23T08:08:48.516Z,96287.94
2023-01-23T08:11:15.280Z,96276.19
2023-01-23T08:13:42.139Z,96280.47
2023-01-23T08:16:09.725Z,96272.22
2023-01-23T08:18:37.291Z,96276.31
2023-01-23T08:21:03.997Z,96278.56
2023-01-23T08:23:32.947Z,96280.66
2023-01-23T08:26:03.087Z,96276.72
2023-01-23T08:28:29.780Z,96266.97
2023-01-23T08:31:00.050Z,96282.41
2023-01-23T08:33:26.567Z,96275.63
2023-01-23T08:35:54.850Z,96281.97
2023-01-23T08:38:21.729Z,96299.72
2023-01-23T08:40:50.331Z,96303.47
2023-01-23T08:43:18.469Z,96288.31
2023-01-23T08:45:48.843Z,96285.50
2023-01-23T08:48:15.595Z,96279.63
2023-01-23T08:50:42.359Z,96268.03
2023-01-23T08:53:08.800Z,96276.72
2023-01-23T08:55:37.660Z,96282.78
2023-01-23T08:58:04.389Z,96291.06
2023-01-23T09:00:32.266Z,96292.97
2023-01-23T09:02:59.458Z,96300.25
2023-01-23T09:05:26.793Z,96293.47
2023-01-23T09:07:53.227Z,96289.00
2023-01-23T09:10:20.146Z,96284.38
2023-01-23T09:12:46.693Z,96292.28
2023-01-23T09:15:13.213Z,96287.03
2023-01-23T09:17:40.270Z,96282.22
2023-01-23T09:20:08.566Z,96284.72
2023-01-23T09:22:35.684Z,96284.31
2023-01-23T09:25:02.320Z,96299.34
2023-01-23T09:27:28.767Z,96294.19
2023-01-23T09:29:55.211Z,96287.94
2023-01-23T09:32:21.583Z,96299.91
2023-01-23T09:34:48.717Z,96292.06
2023-01-23T09:37:15.642Z,96273.34
2023-01-23T09:39:42.717Z,96275.84
2023-01-23T09:42:16.692Z,96269.56
2023-01-23T09:44:48.194Z,96260.09
2023-01-23T09:47:19.744Z,96267.84
2023-01-23T09:49:52.354Z,96266.16
2023-01-23T09:52:21.406Z,96277.94
2023-01-23T09:54:50.231Z,96284.31
2023-01-23T09:57:20.769Z,96278.75
2023-01-23T10:00:00.698Z,96266.41
2023-01-23T10:02:27.765Z,96284.50
2023-01-23T10:04:57.348Z,96284.09
2023-01-23T10:07:39.801Z,96281.69
2023-01-23T10:10:29.715Z,96267.47
2023-01-23T10:13:05.041Z,96270.44
2023-01-23T10:15:53.808Z,96277.53
2023-01-23T10:18:25.739Z,96261.63
2023-01-23T10:21:04.196Z,96264.03
2023-01-23T10:23:47.255Z,96256.47
2023-01-23T10:26:18.153Z,96248.91
2023-01-23T10:28:46.495Z,96257.56
2023-01-23T10:31:28.431Z,96262.63
2023-01-23T10:34:05.032Z,96251.47
2023-01-23T10:36:48.045Z,96258.13
2023-01-23T10:39:26.005Z,96255.00
2023-01-23T10:42:01.455Z,96252.69
2023-01-23T10:44:28.751Z,96252.59
2023-01-23T10:47:00.135Z,96235.28
2023-01-23T10:49:29.041Z,96242.38
2023-01-23T10:51:56.177Z,96241.38
2023-01-23T10:54:31.775Z,96236.47
2023-01-23T10:57:01.914Z,96238.25
2023-01-23T10:59:34.013Z,96229.41
2023-01-23T11:02:05.452Z,96232.03
2023-01-23T11:04:36.251Z,96222.22
2023-01-23T11:07:07.704Z,96226.38
2023-01-23T11:09:47.015Z,96213.59
2023-01-23T11:12:17.518Z,96216.03
2023-01-23T11:14:44.434Z,96214.53
2023-01-23T11:17:20.517Z,96213.50
2023-01-23T11:19:50.912Z,96200.91
2023-01-23T11:22:29.341Z,96213.34
2023-01-23T11:24:56.296Z,96207.47
2023-01-23T11:27:27.168Z,96194.66
2023-01-23T11:30:05.819Z,96196.81
2023-01-23T11:32:37.885Z,96191.72
2023-01-23T11:35:12.624Z,96198.81
2023-01-23T11:37:40.591Z,96195.31
2023-01-23T11:40:12.556Z,96193.84
2023-01-23T11:42:40.955Z,96199.19
2023-01-23T11:45:14.033Z,96193.16
2023-01-23T11:48:00.082Z,96188.69
2023-01-23T11:50:43.666Z,96184.16
2023-01-23T11:53:36.764Z,96184.88
2023-01-23T11:56:39.102Z,96180.84
2023-01-23T11:59:30.790Z,96178.75
2023-01-23T12:02:12.840Z,96168.88
2023-01-23T12:05:02.100Z,96155.00
2023-01-23T12:07:32.509Z,96154.69
2023-01-23T12:10:08.890Z,96150.94
2023-01-23T12:13:06.492Z,96143.31
2023-01-23T12:15:43.610Z,96152.38
2023-01-23T12:18:24.906Z,96162.56
2023-01-23T12:21:00.555Z,96151.97
2023-01-23T12:23:48.969Z,96148.66
2023-01-23T12:26:19.062Z,96137.22
2023-01-23T12:29:32.921Z,96143.59
2023-01-23T12:32:15.508Z,96137.56
2023-01-23T12:34:58.873Z,96138.13
2023-01-23T12:37:39.111Z,96137.97
2023-01-23T12:40:12.558Z,96134.22
2023-01-23T12:42:48.162Z,96132.28
2023-01-23T12:45:22.194Z,96136.25
2023-01-23T12:47:56.744Z,96137.47
2023-01-23T12:50:34.285Z,96139.03
2023-01-23T12:53:06.548Z,96130.78
2023-01-23T12:55:36.470Z,96132.00
2023-01-23T12:58:09.476Z,96124.13
2023-01-23T13:00:52.351Z,96135.94
2023-01-23T13:03:47.193Z,96134.34
2023-01-23T13:06:26.455Z,96125.88
2023-01-23T13:09:08.892Z,96128.28
2023-01-23T13:11:50.039Z,96136.16
2023-01-23T13:14:22.162Z,96144.13
2023-01-23T13:16:50.559Z,96141.81
2023-01-23T13:19:42.151Z,96133.72
2023-01-23T13:22:27.270Z,96137.22
2023-01-23T13:25:11.774Z,96133.78
2023-01-23T13:27:46.514Z,96145.03
2023-01-23T13:30:42.088Z,96136.47
2023-01-23T13:33:51.810Z,96139.19
2023-01-23T13:36:33.616Z,96139.53
2023-01-23T13:39:02.206Z,96140.88
2023-01-23T13:41:29.538Z,96135.00
2023-01-23T13:44:03.335Z,96139.09
2023-01-23T14:24:22.150Z,96133.78
2023-01-23T14:26:50.653Z,96127.44
2023-01-23T14:29:21.815Z,96127.09
2023-01-23T14:31:50.333Z,96127.09
2023-01-23T14:34:19.137Z,96126.56
2023-01-23T14:36:49.717Z,96108.25
2023-01-23T14:39:19.594Z,96126.91
2023-01-23T14:41:47.666Z,96122.97
2023-01-23T14:44:19.987Z,96130.34
2023-01-23T14:46:51.654Z,96120.34
2023-01-23T14:49:25.939Z,96124.47
2023-01-23T14:51:58.936Z,96137.53
2023-01-23T14:54:29.598Z,96136.81
2023-01-23T14:57:03.581Z,96125.16
2023-01-23T14:59:33.460Z,96125.34
2023-01-23T15:02:05.331Z,96121.94
2023-01-23T15:04:36.661Z,96125.72
2023-01-23T15:07:03.891Z,96126.84
2023-01-23T15:09:33.749Z,96127.38
2023-01-23T15:12:05.285Z,96122.13
2023-01-23T15:14:36.082Z,96143.53
2023-01-23T15:17:04.801Z,96122.13
2023-01-23T15:19:34.460Z,96139.25
2023-01-23T15:22:18.680Z,96133.00
2023-01-23T15:24:45.682Z,96130.38
2023-01-23T15:27:27.353Z,96133.56
2023-01-23T15:30:27.014Z,96139.34
2023-01-23T15:32:53.647Z,96140.25
2023-01-23T15:35:20.485Z,96143.31
2023-01-23T15:37:49.018Z,96144.69
2023-01-23T15:40:18.497Z,96141.00
2023-01-23T15:43:00.937Z,96133.00
2023-01-23T15:45:27.485Z,96145.53
2023-01-23T15:47:53.904Z,96144.22
2023-01-23T15:50:20.574Z,96148.03
2023-01-23T15:52:49.934Z,96148.22
2023-01-23T15:55:16.878Z,96146.22
2023-01-23T15:57:43.357Z,96148.84
2023-01-23T16:00:14.597Z,96152.09
2023-01-23T16:02:54.712Z,96160.25
2023-01-23T16:05:24.442Z,96144.31
2023-01-23T16:07:53.200Z,96149.88
2023-01-23T16:10:21.998Z,96157.34
2023-01-23T16:12:50.221Z,96153.69
2023-01-23T16:15:18.218Z,96165.09
2023-01-23T16:17:44.767Z,96171.03
2023-01-23T16:20:14.206Z,96166.03
2023-01-23T16:22:41.197Z,96166.72
2023-01-23T16:25:17.428Z,96167.75
2023-01-23T16:27:43.923Z,96161.88
2023-01-23T16:30:16.854Z,96165.22
2023-01-23T16:32:43.993Z,96170.47
2023-01-23T16:35:11.462Z,96168.75
2023-01-23T16:37:40.414Z,96169.47
2023-01-23T16:40:16.182Z,96168.53
2023-01-23T16:42:44.247Z,96168.34
2023-01-23T16:45:15.088Z,96161.09
2023-01-23T16:47:41.487Z,96167.84
2023-01-23T16:50:11.150Z,96168.53
2023-01-23T16:52:37.818Z,96165.81
2023-01-23T16:55:15.597Z,96168.13
2023-01-23T16:57:42.739Z,96170.34
2023-01-23T17:00:14.252Z,96168.81
2023-01-23T17:02:40.941Z,96165.00
2023-01-23T17:05:08.525Z,96171.47
2023-01-23T17:07:35.020Z,96172.38
2023-01-23T17:10:01.810Z,96173.78
2023-01-23T17:12:32.282Z,96172.25
2023-01-23T17:14:59.439Z,96170.75
2023-01-23T17:17:31.353Z,96175.50
2023-01-23T17:20:00.308Z,96169.25
2023-01-23T17:22:29.946Z,96178.13
2023-01-23T17:24:56.602Z,96178.91
2023-01-23T17:27:23.288Z,96183.38
2023-01-23T17:29:49.813Z,96182.94
2023-01-23T17:32:26.711Z,96175.50
2023-01-23T17:34:54.031Z,96175.59
2023-01-23T17:37:22.344Z,96178.53
2023-01-23T17:39:48.922Z,96179.13
2023-01-23T17:42:15.751Z,96175.59
2023-01-23T17:44:42.700Z,96187.41
2023-01-23T17:47:11.741Z,96170.97
2023-01-23T17:49:39.516Z,96185.88
2023-01-23T17:52:06.045Z,96192.53
2023-01-23T17:54:32.724Z,96183.38
2023-01-23T17:56:59.294Z,96183.25
2023-01-23T17:59:26.036Z,96181.38
2023-01-23T18:01:52.601Z,96183.38
2023-01-23T18:04:21.390Z,96185.19
2023-01-23T18:06:49.043Z,96181.97
2023-01-23T18:09:15.763Z,96183.69
2023-01-23T18:11:49.628Z,96181.75
2023-01-23T18:14:40.785Z,96181.75
2023-01-23T18:17:19.345Z,96180.56
2023-01-23T18:19:46.406Z,96189.22
2023-01-23T18:22:14.319Z,96185.09
2023-01-23T18:24:41.367Z,96186.19
2023-01-23T18:27:19.153Z,96183.06
2023-01-23T18:30:03.028Z,96181.59
2023-01-23T18:32:51.143Z,96188.63
2023-01-23T18:35:30.148Z,96197.59
2023-01-23T18:38:05.992Z,96191.84
2023-01-23T18:40:40.605Z,96201.44
2023-01-23T18:43:18.733Z,96198.00
2023-01-23T18:45:45.949Z,96199.97
2023-01-23T18:48:24.625Z,96201.13
2023-01-23T18:51:05.842Z,96197.28
2023-01-23T18:53:45.543Z,96203.56
2023-01-23T18:56:24.348Z,96201.72
2023-01-23T18:59:11.106Z,96203.34
2023-01-23T19:01:49.669Z,96205.56
2023-01-23T19:04:19.577Z,96208.06
2023-01-23T19:06:47.209Z,96217.16
2023-01-23T19:09:22.504Z,96182.78
2023-01-23T19:12:00.218Z,96209.38
2023-01-23T19:14:45.596Z,96218.16
2023-01-23T19:17:26.400Z,96203.25
2023-01-23T19:20:00.443Z,96224.38
2023-01-23T19:22:45.354Z,96222.22
2023-01-23T19:25:16.712Z,96230.91
2023-01-23T19:27:51.591Z,96239.06
2023-01-23T19:30:21.351Z,96227.50
2023-01-23T19:32:48.316Z,96224.69
2023-01-23T19:35:15.557Z,96231.00
2023-01-23T19:37:43.480Z,96224.38
2023-01-23T19:40:15.621Z,96232.50
2023-01-23T19:42:54.170Z,96214.69
2023-01-23T19:45:25.726Z,96236.44
2023-01-23T19:47:52.660Z,96237.34
2023-01-23T19:50:21.016Z,96238.66
2023-01-23T19:52:49.158Z,96250.47
2023-01-23T19:55:23.770Z,96235.81
2023-01-23T19:57:51.555Z,96252.06
2023-01-23T20:00:19.105Z,96247.22
2023-01-23T20:02:45.938Z,96250.78
2023-01-23T20:05:12.664Z,96250.28
2023-01-23T20:07:39.191Z,96245.34
2023-01-23T20:10:07.692Z,96240.72
2023-01-23T20:12:40.813Z,96241.63
2023-01-23T20:15:10.811Z,96240.81
2023-01-23T20:17:37.334Z,96239.91
2023-01-23T20:20:09.841Z,96250.41
2023-01-23T20:22:37.094Z,96255.63
2023-01-23T20:25:04.501Z,96260.44
2023-01-23T20:27:31.039Z,96245.03
2023-01-23T20:29:57.664Z,96249.38
2023-01-23T20:32:25.424Z,96253.94
2023-01-23T20:34:54.351Z,96250.88
2023-01-23T20:37:20.931Z,96257.31
2023-01-23T20:39:47.567Z,96265.19
2023-01-23T20:42:17.631Z,96277.50
2023-01-23T20:44:44.280Z,96255.63
2023-01-23T20:47:10.858Z,96254.25
2023-01-23T20:49:39.388Z,96264.19
2023-01-23T20:52:24.972Z,96260.66
2023-01-23T20:54:51.909Z,96265.00
2023-01-23T20:57:20.596Z,96260.88
2023-01-23T20:59:47.127Z,96267.09
2023-01-23T21:02:22.521Z,96271.13
2023-01-23T21:04:50.833Z,96281.34
2023-01-23T21:07:17.789Z,96268.94
2023-01-23T21:09:45.581Z,96278.91
2023-01-23T21:12:12.535Z,96275.78
2023-01-23T21:14:39.366Z,96278.91
2023-01-23T21:17:07.832Z,96265.28
2023-01-23T21:19:36.499Z,96284.16
2023-01-23T21:22:05.258Z,96284.97
2023-01-23T21:24:36.845Z,96276.19
2023-01-23T21:27:05.197Z,96280.31
2023-01-23T21:29:32.960Z,96273.34
2023-01-23T21:32:00.133Z,96272.59
2023-01-23T21:34:26.772Z,96274.13
2023-01-23T21:36:53.480Z,96273.13
2023-01-23T21:39:20.740Z,96273.91
2023-01-23T21:41:47.518Z,96280.13
2023-01-23T21:44:14.115Z,96295.66
2023-01-23T21:46:41.001Z,96288.09
2023-01-23T21:49:07.800Z,96293.75
2023-01-23T21:51:34.374Z,96289.41
2023-01-23T21:54:01.120Z,96293.94
2023-01-23T21:56:28.334Z,96289.09
2023-01-23T21:58:55.169Z,96284.56
2023-01-23T22:01:32.356Z,96297.34
2023-01-23T22:03:59.896Z,96293.00
2023-01-23T22:06:26.464Z,96283.91
2023-01-23T22:08:53.422Z,96288.16
2023-01-23T22:11:22.690Z,96287.19
2023-01-23T22:13:50.393Z,96286.59
2023-01-23T22:16:17.197Z,96291.31
2023-01-23T22:18:43.850Z,96303.84
2023-01-23T22:21:10.911Z,96292.03
2023-01-23T22:23:37.462Z,96294.34
2023-01-23T22:26:07.815Z,96290.69
2023-01-23T22:28:34.490Z,96286.69
2023-01-23T22:31:06.191Z,96291.63
2023-01-23T22:33:40.147Z,96295.25
2023-01-23T22:36:11.115Z,96296.28
2023-01-23T22:38:38.048Z,96296.28
2023-01-23T22:41:06.151Z,96299.00
2023-01-23T22:43:33.195Z,96282.94
2023-01-23T22:46:07.623Z,96304.00
2023-01-23T22:48:34.619Z,96305.50
2023-01-23T22:51:01.691Z,96303.69
2023-01-23T22:53:28.314Z,96299.59
2023-01-23T22:55:54.708Z,96291.38
2023-01-23T22:58:21.281Z,96301.81
2023-01-23T23:00:51.196Z,96297.69
2023-01-23T23:03:19.043Z,96300.19
2023-01-23T23:05:45.883Z,96305.63
2023-01-23T23:08:12.294Z,96293.81
2023-01-23T23:10:38.836Z,96302.28
2023-01-23T23:13:07.405Z,96299.97
2023-01-23T23:15:35.673Z,96305.66
2023-01-23T23:18:02.249Z,96302.63
2023-01-23T23:20:31.128Z,96305.75
2023-01-23T23:22:58.922Z,96296.06
2023-01-23T23:25:25.726Z,96291.03
2023-01-23T23:27:52.173Z,96301.16
2023-01-23T23:30:18.948Z,96277.06
2023-01-23T23:32:45.773Z,96300.06
2023-01-23T23:35:12.259Z,96296.22
2023-01-23T23:37:42.217Z,96295.72
2023-01-23T23:40:12.032Z,96292.38
2023-01-23T23:42:41.696Z,96291.19
2023-01-23T23:45:09.526Z,96287.94
2023-01-23T23:47:35.950Z,96282.81
2023-01-23T23:50:04.043Z,96274.72
2023-01-23T23:52:30.661Z,96281.28
2023-01-23T23:54:58.135Z,96289.84
2023-01-23T23:57:24.893Z,96281.28
2023-01-23T23:59:51.960Z,96296.53
